Time;durP1;ratioP1;P1;durP2;ratioP2;P2;SDS_P1;SDS_P2;PMS_P1;PMS_P2;Temp;Humidity;BMP_temperature;BMP_pressure;BME280_temperature;BME280_humidity;BME280_pressure;Samples;Min_cycle;Max_cycle;Signal;HPM_P1;HPM_P2
2021/11/25 00:01:06;;;;;;;32.45;16.80;;;;;;;1.97;nan;100212.38;4999269;28;20052;-82
2021/11/25 00:03:31;;;;;;;31.88;17.17;;;;;;;1.95;nan;100209.88;4993684;28;20073;-82
2021/11/25 00:05:56;;;;;;;33.05;16.52;;;;;;;1.96;nan;100197.69;4991645;28;20041;-82
2021/11/25 00:08:22;;;;;;;29.17;15.75;;;;;;;1.94;nan;100197.78;4989886;28;20049;-82
2021/11/25 00:10:47;;;;;;;30.58;16.23;;;;;;;2.04;nan;100198.81;4991199;28;20035;-81
2021/11/25 00:13:13;;;;;;;32.10;16.67;;;;;;;1.98;nan;100199.25;4994323;28;20053;-82
2021/11/25 00:15:40;;;;;;;33.28;16.65;;;;;;;1.97;nan;100192.34;4991515;28;20575;-82
2021/11/25 00:18:05;;;;;;;30.92;16.73;;;;;;;2.01;nan;100188.59;4992589;28;20118;-82
2021/11/25 00:20:32;;;;;;;32.75;17.13;;;;;;;2.05;nan;100195.28;4990795;28;20026;-82
2021/11/25 00:22:57;;;;;;;33.05;17.27;;;;;;;2.02;nan;100192.03;4992479;28;20400;-82
2021/11/25 00:25:23;;;;;;;31.45;16.20;;;;;;;1.97;nan;100187.13;4992304;28;20046;-82
2021/11/25 00:27:48;;;;;;;30.58;16.15;;;;;;;1.98;nan;100186.22;4993272;28;20292;-83
2021/11/25 00:30:14;;;;;;;29.80;15.27;;;;;;;1.95;nan;100183.78;4990195;28;20054;-81
2021/11/25 00:32:41;;;;;;;31.60;16.27;;;;;;;2.07;nan;100185.59;4992301;28;20042;-82
2021/11/25 00:35:09;;;;;;;32.35;16.05;;;;;;;2.05;nan;100181.38;4991290;28;20054;-83
2021/11/25 00:37:35;;;;;;;31.98;16.45;;;;;;;2.14;nan;100172.94;5000654;28;20030;-83
2021/11/25 00:40:00;;;;;;;30.48;15.38;;;;;;;2.04;nan;100162.31;4998784;28;20113;-82
2021/11/25 00:42:27;;;;;;;36.65;17.75;;;;;;;2.07;nan;100169.94;4992099;28;20122;-81
2021/11/25 00:44:52;;;;;;;31.58;16.40;;;;;;;1.99;nan;100164.41;4988110;28;20429;-83
2021/11/25 00:47:18;;;;;;;31.30;16.80;;;;;;;2.17;nan;100161.44;4989573;28;20035;-81
2021/11/25 00:49:43;;;;;;;31.30;15.98;;;;;;;2.12;nan;100159.16;4989782;28;20034;-81
2021/11/25 00:52:08;;;;;;;32.80;17.88;;;;;;;2.05;nan;100157.91;4990359;28;20389;-83
2021/11/25 00:54:33;;;;;;;32.08;16.70;;;;;;;1.98;nan;100154.06;5004961;28;20050;-81
2021/11/25 00:56:59;;;;;;;36.58;18.52;;;;;;;2.13;nan;100158.22;5000609;28;20030;-83
2021/11/25 00:59:24;;;;;;;32.70;17.10;;;;;;;2.00;nan;100149.56;5003463;28;20038;-82
2021/11/25 01:01:49;;;;;;;34.00;17.17;;;;;;;2.06;nan;100149.16;5001787;28;20492;-83
2021/11/25 01:04:15;;;;;;;31.90;16.48;;;;;;;2.06;nan;100154.38;4996889;28;20034;-82
2021/11/25 01:06:40;;;;;;;30.00;16.10;;;;;;;1.99;nan;100147.94;4999171;28;20057;-82
2021/11/25 01:09:05;;;;;;;29.38;15.82;;;;;;;2.01;nan;100152.09;4993223;28;20062;-82
2021/11/25 01:11:31;;;;;;;28.88;15.30;;;;;;;2.00;nan;100160.00;4994731;28;20043;-82
2021/11/25 01:13:56;;;;;;;29.42;15.73;;;;;;;2.05;nan;100152.69;4996208;28;20037;-82
2021/11/25 01:16:22;;;;;;;31.42;16.75;;;;;;;2.02;nan;100158.13;4990191;28;20095;-82
2021/11/25 01:18:48;;;;;;;31.45;15.85;;;;;;;2.02;nan;100155.53;4991251;28;20046;-82
2021/11/25 01:21:14;;;;;;;33.55;17.23;;;;;;;2.09;nan;100154.16;4990094;28;20496;-84
2021/11/25 01:23:39;;;;;;;31.90;16.60;;;;;;;2.03;nan;100159.81;4992220;28;20057;-82
2021/11/25 01:26:05;;;;;;;31.67;15.48;;;;;;;2.07;nan;100154.28;4990340;28;20036;-80
2021/11/25 01:28:31;;;;;;;27.63;15.45;;;;;;;2.04;nan;100156.25;4993030;28;20031;-84
2021/11/25 01:31:00;;;;;;;30.40;15.98;;;;;;;2.21;nan;100155.91;4994496;28;20038;-81
2021/11/25 01:33:26;;;;;;;31.40;16.08;;;;;;;2.15;nan;100148.53;4992930;28;20034;-82
2021/11/25 01:35:52;;;;;;;27.63;14.77;;;;;;;2.12;nan;100151.34;4992217;28;20085;-81
2021/11/25 01:38:18;;;;;;;30.25;17.00;;;;;;;2.18;nan;100157.91;4992929;28;20034;-83
2021/11/25 01:40:45;;;;;;;30.40;15.98;;;;;;;2.12;nan;100157.41;4998926;28;20022;-82
2021/11/25 01:43:11;;;;;;;31.40;16.88;;;;;;;2.15;nan;100153.75;4992038;28;20138;-81
2021/11/25 01:45:37;;;;;;;31.05;16.45;;;;;;;2.15;nan;100153.75;4991923;28;20034;-81
2021/11/25 01:48:04;;;;;;;34.88;16.77;;;;;;;2.24;nan;100147.03;4993155;28;20030;-82
2021/11/25 01:50:31;;;;;;;33.50;16.63;;;;;;;2.21;nan;100136.81;4993109;28;20496;-81
2021/11/25 01:52:57;;;;;;;29.48;15.93;;;;;;;2.14;nan;100139.03;4992493;28;20396;-82
2021/11/25 01:55:22;;;;;;;31.42;15.48;;;;;;;2.12;nan;100135.69;4990423;28;20034;-82
2021/11/25 01:57:49;;;;;;;30.40;15.80;;;;;;;2.05;nan;100144.88;4993111;28;20037;-83
2021/11/25 02:00:19;;;;;;;27.40;14.57;;;;;;;2.07;nan;100137.78;4993553;28;20058;-82
2021/11/25 02:02:44;;;;;;;31.42;16.17;;;;;;;2.06;nan;100136.13;4998042;28;20042;-83
2021/11/25 02:05:11;;;;;;;27.98;15.50;;;;;;;2.07;nan;100133.41;4996518;28;20030;-82
2021/11/25 02:07:36;;;;;;;34.53;16.52;;;;;;;2.18;nan;100135.25;4992551;28;20039;-82
2021/11/25 02:10:04;;;;;;;27.77;15.70;;;;;;;2.17;nan;100141.44;4993239;28;20038;-82
2021/11/25 02:12:29;;;;;;;27.33;14.25;;;;;;;2.17;nan;100138.81;4991324;28;20058;-83
2021/11/25 02:14:54;;;;;;;24.90;13.75;;;;;;;2.21;nan;100139.44;4994617;28;20050;-83
2021/11/25 02:17:20;;;;;;;24.15;13.68;;;;;;;2.23;nan;100140.16;4995639;28;20121;-82
2021/11/25 02:19:48;;;;;;;28.90;14.60;;;;;;;2.20;nan;100141.22;4993430;28;20029;-82
2021/11/25 02:22:13;;;;;;;30.48;15.85;;;;;;;2.25;nan;100133.06;4993810;28;20086;-81
2021/11/25 08:56:31;;;;;;;37.92;20.30;;;;;;;2.30;nan;100069.16;4996597;28;20053;-81
2021/11/25 08:58:57;;;;;;;39.72;20.73;;;;;;;2.21;nan;100062.00;5024684;28;20034;-81
2021/11/25 09:01:23;;;;;;;39.67;20.80;;;;;;;2.23;nan;100057.50;4981667;28;20036;-81
2021/11/25 09:03:48;;;;;;;36.95;20.52;;;;;;;2.30;nan;100069.16;4982254;28;20030;-82
2021/11/25 09:06:14;;;;;;;35.00;19.77;;;;;;;2.26;nan;100069.50;5006321;28;20035;-81
2021/11/25 09:08:40;;;;;;;34.78;19.45;;;;;;;2.28;nan;100065.84;5000519;28;20039;-81
2021/11/25 09:11:05;;;;;;;31.88;18.27;;;;;;;2.31;nan;100070.84;5005088;28;20038;-81
2021/11/25 09:13:30;;;;;;;31.58;18.05;;;;;;;2.38;nan;100066.00;5004567;28;20661;-83
2021/11/25 09:15:57;;;;;;;31.08;17.80;;;;;;;2.47;nan;100069.75;5008764;28;20454;-82
2021/11/25 09:18:22;;;;;;;30.45;18.13;;;;;;;2.47;nan;100074.97;4985795;28;20034;-82
2021/11/25 09:20:48;;;;;;;32.78;19.70;;;;;;;2.38;nan;100068.63;4982019;28;20046;-82
2021/11/25 09:23:16;;;;;;;33.40;19.63;;;;;;;2.42;nan;100069.25;5009090;28;20034;-82
2021/11/25 09:25:43;;;;;;;32.78;17.95;;;;;;;2.52;nan;100067.63;5007541;28;20324;-82
2021/11/25 09:28:14;;;;;;;32.35;17.70;;;;;;;2.54;nan;100060.53;5002034;28;20038;-81
2021/11/25 09:30:40;;;;;;;37.53;20.75;;;;;;;2.44;nan;100038.66;5004524;28;20031;-81
2021/11/25 09:33:12;;;;;;;34.03;19.10;;;;;;;2.49;nan;100042.59;5014657;28;20026;-84
2021/11/25 09:35:39;;;;;;;36.00;20.33;;;;;;;2.45;nan;100041.13;4997156;28;20030;-84
2021/11/25 09:38:11;;;;;;;38.38;20.45;;;;;;;2.46;nan;100042.00;5016541;28;20052;-83
2021/11/25 09:40:41;;;;;;;31.02;17.65;;;;;;;2.51;nan;100032.03;4976859;28;20037;-83
2021/11/25 09:43:10;;;;;;;30.70;18.05;;;;;;;2.54;nan;100029.19;5003055;28;20046;-83
2021/11/25 09:45:37;;;;;;;35.45;20.25;;;;;;;2.54;nan;100030.03;5034158;28;20029;-84
2021/11/25 09:48:06;;;;;;;34.30;18.00;;;;;;;2.60;nan;100028.75;5012349;28;20105;-84
2021/11/25 09:50:43;;;;;;;34.75;19.27;;;;;;;2.70;nan;100028.91;5011855;28;20045;-84
2021/11/25 09:53:09;;;;;;;34.33;19.02;;;;;;;2.70;nan;100024.53;4991252;28;20455;-84
2021/11/25 09:55:37;;;;;;;34.55;20.38;;;;;;;2.60;nan;100022.69;5013403;28;20037;-83
2021/11/25 09:58:04;;;;;;;35.13;20.40;;;;;;;2.55;nan;100021.28;5014969;28;20036;-83
2021/11/25 10:00:32;;;;;;;37.92;21.02;;;;;;;2.40;nan;100016.34;5009433;28;20123;-84
2021/11/25 10:02:59;;;;;;;37.60;20.13;;;;;;;2.36;nan;100020.09;4997798;28;20057;-83
2021/11/25 10:05:25;;;;;;;36.13;19.95;;;;;;;2.42;nan;100004.84;5013847;28;20117;-84
2021/11/25 10:07:51;;;;;;;34.92;19.67;;;;;;;2.47;nan;100018.38;4995309;28;20175;-83
2021/11/25 10:10:24;;;;;;;36.33;20.05;;;;;;;2.49;nan;100028.72;5015206;28;20034;-84
2021/11/25 10:12:50;;;;;;;34.70;18.88;;;;;;;2.55;nan;100036.06;5016716;28;20038;-84
2021/11/25 10:15:32;;;;;;;36.92;20.25;;;;;;;2.55;nan;100028.25;5008335;28;20026;-83
2021/11/25 10:18:03;;;;;;;34.00;20.10;;;;;;;2.48;nan;100032.25;5010137;28;20035;-82
2021/11/25 10:20:32;;;;;;;;;;;;;;;2.39;nan;100039.00;5008632;28;20113;-83
2021/11/25 10:23:01;;;;;;;36.22;20.25;;;;;;;2.46;nan;100028.94;5014950;28;19917;-82
2021/11/25 10:25:48;;;;;;;38.13;21.00;;;;;;;2.44;nan;100012.56;5023031;28;20039;-83
2021/11/25 10:28:18;;;;;;;35.65;19.77;;;;;;;2.52;nan;100010.22;5008766;28;20250;-83
2021/11/25 10:30:43;;;;;;;36.47;20.57;;;;;;;2.48;nan;100020.06;5011749;28;20026;-84
2021/11/25 10:33:09;;;;;;;38.83;21.65;;;;;;;2.42;nan;100025.72;5024761;28;20041;-83
2021/11/25 10:35:49;;;;;;;41.03;22.48;;;;;;;2.48;nan;100024.41;5001320;28;20026;-83
2021/11/25 10:40:42;;;;;;;34.20;20.00;;;;;;;2.51;nan;100027.66;5011180;28;20038;-83
2021/11/25 10:43:22;;;;;;;35.92;19.95;;;;;;;2.56;nan;100019.50;4998069;28;20049;-83
2021/11/25 10:45:50;;;;;;;36.20;20.33;;;;;;;2.54;nan;100023.97;5013783;28;20034;-83
2021/11/25 10:48:42;;;;;;;37.30;20.60;;;;;;;2.54;nan;100031.81;5014368;28;20406;-83
2021/11/25 10:51:25;;;;;;;36.17;20.67;;;;;;;2.52;nan;100038.91;4998648;28;20041;-84
2021/11/25 10:54:16;;;;;;;39.63;22.00;;;;;;;2.51;nan;100038.09;5009766;28;20034;-83
2021/11/25 10:56:48;;;;;;;38.85;21.48;;;;;;;2.56;nan;100037.75;5018141;28;20031;-84
2021/11/25 10:59:16;;;;;;;39.58;22.05;;;;;;;2.49;nan;100039.97;5020526;28;20125;-84
2021/11/25 11:01:45;;;;;;;38.25;21.40;;;;;;;2.52;nan;100026.69;4992827;28;20510;-84
2021/11/25 11:04:12;;;;;;;34.85;20.58;;;;;;;2.64;nan;100035.41;4992391;28;20252;-84
2021/11/25 11:06:39;;;;;;;34.72;20.23;;;;;;;2.60;nan;100028.75;5024784;28;20026;-84
2021/11/25 11:09:07;;;;;;;32.30;18.27;;;;;;;2.74;nan;100039.03;5015357;28;20115;-84
2021/11/25 11:11:35;;;;;;;36.78;20.27;;;;;;;2.72;nan;100037.47;5011765;28;20050;-83
2021/11/25 11:14:14;;;;;;;38.63;21.40;;;;;;;2.75;nan;100035.44;5012684;28;20030;-84
2021/11/25 11:17:05;;;;;;;38.72;20.88;;;;;;;2.72;nan;100038.28;5004316;28;20034;-84
2021/11/25 11:19:30;;;;;;;36.43;20.60;;;;;;;2.72;nan;100035.69;5003945;28;20051;-83
2021/11/25 11:21:58;;;;;;;38.10;20.33;;;;;;;2.78;nan;100037.00;5018869;28;20294;-83
2021/11/25 11:24:27;;;;;;;38.38;20.75;;;;;;;2.65;nan;100031.03;5003537;28;20053;-83
2021/11/25 11:27:05;;;;;;;38.45;20.08;;;;;;;2.66;nan;100032.69;5007065;28;20033;-84
2021/11/25 11:29:33;;;;;;;35.28;19.50;;;;;;;2.63;nan;100036.34;5011592;28;20040;-84
2021/11/25 11:32:05;;;;;;;33.03;18.50;;;;;;;2.64;nan;100037.19;5018438;28;20093;-84
2021/11/25 11:34:31;;;;;;;31.70;18.40;;;;;;;2.64;nan;100024.97;5003611;28;20034;-84
2021/11/25 11:36:58;;;;;;;32.83;18.40;;;;;;;2.74;nan;100019.88;4990213;28;20030;-83
2021/11/25 11:39:27;;;;;;;34.70;19.42;;;;;;;2.70;nan;100021.91;5020730;28;20113;-84
2021/11/25 11:41:59;;;;;;;35.10;19.95;;;;;;;2.85;nan;100030.38;5018425;28;20062;-84
2021/11/25 11:44:25;;;;;;;32.97;19.08;;;;;;;2.78;nan;100026.56;5017381;28;20065;-84
2021/11/25 11:46:54;;;;;;;33.75;19.80;;;;;;;2.76;nan;100021.47;4986799;28;20030;-83
2021/11/25 11:49:21;;;;;;;34.97;18.67;;;;;;;2.79;nan;100019.53;5002827;28;20062;-83
2021/11/25 11:52:12;;;;;;;35.13;19.55;;;;;;;2.76;nan;100005.81;5007726;28;20093;-84
2021/11/25 11:54:42;;;;;;;35.78;19.67;;;;;;;2.70;nan;100011.47;5000360;28;20034;-83
2021/11/25 11:57:27;;;;;;;32.97;18.30;;;;;;;2.77;nan;100006.63;5018183;28;20034;-84
2021/11/25 11:59:54;;;;;;;35.60;19.50;;;;;;;2.72;nan;100001.75;5017549;28;20033;-83
2021/11/25 12:02:41;;;;;;;28.90;17.20;;;;;;;2.74;nan;100004.22;5013836;28;20092;-83
2021/11/25 12:05:08;;;;;;;32.88;19.70;;;;;;;2.73;nan;99999.97;5008730;28;20030;-84
2021/11/25 12:07:33;;;;;;;30.38;17.10;;;;;;;2.64;nan;99993.63;5017685;28;20061;-83
2021/11/25 12:09:59;;;;;;;30.48;17.48;;;;;;;2.67;nan;99998.66;5003416;28;20026;-83
2021/11/25 12:12:24;;;;;;;31.27;17.90;;;;;;;2.57;nan;100000.25;4988656;28;20038;-83
2021/11/25 12:14:51;;;;;;;29.15;17.17;;;;;;;2.59;nan;100005.38;5007997;28;20043;-84
2021/11/25 12:17:43;;;;;;;28.98;17.02;;;;;;;2.64;nan;99996.25;4990327;28;20038;-83
2021/11/25 12:20:33;;;;;;;27.67;15.82;;;;;;;2.75;nan;99996.28;5016920;28;20316;-84
2021/11/25 12:22:59;;;;;;;26.92;15.57;;;;;;;2.70;nan;99994.97;5012908;28;20045;-83
2021/11/25 12:25:35;;;;;;;31.80;17.33;;;;;;;2.78;nan;99997.84;5009225;28;20043;-83
2021/11/25 12:28:21;;;;;;;29.10;16.88;;;;;;;2.68;nan;99987.25;5009465;28;20026;-84
2021/11/25 12:30:53;;;;;;;30.92;17.17;;;;;;;2.74;nan;99981.59;5007943;28;20605;-84
2021/11/25 12:33:40;;;;;;;26.75;14.50;;;;;;;2.74;nan;99985.94;4988661;28;20118;-83
2021/11/25 12:36:06;;;;;;;26.13;15.43;;;;;;;2.74;nan;99978.13;4990484;28;20034;-83
2021/11/25 12:38:37;;;;;;;30.00;16.92;;;;;;;2.77;nan;99972.69;4998175;28;20084;-83
2021/11/25 12:41:05;;;;;;;;;;;;;;;2.80;nan;99976.84;5005134;28;20062;-83
2021/11/25 12:43:34;;;;;;;28.23;15.60;;;;;;;2.75;nan;99972.78;4996842;28;20008;-84
2021/11/25 12:46:31;;;;;;;28.38;16.17;;;;;;;2.78;nan;99968.28;5001447;28;20034;-82
2021/11/25 12:48:56;;;;;;;27.25;15.55;;;;;;;2.86;nan;99963.31;5014593;28;20253;-83
2021/11/25 12:51:24;;;;;;;30.35;16.98;;;;;;;2.89;nan;99963.09;5003385;28;20054;-84
2021/11/25 12:53:52;;;;;;;;;;;;;;;2.82;nan;99964.50;5023330;28;20052;-83
2021/11/25 12:56:19;;;;;;;30.13;16.50;;;;;;;2.89;nan;99955.25;5014910;28;19944;-82
2021/11/25 12:58:49;;;;;;;27.58;15.45;;;;;;;2.95;nan;99952.16;4998624;28;20034;-83
2021/11/25 13:01:27;;;;;;;29.10;16.83;;;;;;;2.91;nan;99955.97;5023896;28;20030;-83
2021/11/25 13:04:16;;;;;;;27.63;16.08;;;;;;;2.88;nan;99954.41;5010736;28;20053;-83
2021/11/25 13:06:46;;;;;;;30.15;17.27;;;;;;;2.93;nan;99957.53;5009865;28;20553;-83
2021/11/25 13:09:15;;;;;;;30.25;17.63;;;;;;;2.93;nan;99954.06;4984343;28;20030;-83
2021/11/25 13:11:43;;;;;;;27.80;16.27;;;;;;;2.98;nan;99954.56;5016528;28;20053;-83
2021/11/25 13:14:17;;;;;;;27.98;15.52;;;;;;;2.93;nan;99954.06;5000885;28;20030;-84
2021/11/25 13:16:59;;;;;;;26.10;16.17;;;;;;;2.93;nan;99954.06;5009804;28;20026;-83
2021/11/25 13:19:31;;;;;;;30.67;16.35;;;;;;;2.92;nan;99953.22;5018289;28;20057;-83
2021/11/25 13:22:05;;;;;;;25.70;14.73;;;;;;;3.00;nan;99943.97;5012730;28;20094;-83
2021/11/25 13:24:45;;;;;;;28.42;16.95;;;;;;;3.09;nan;99945.88;4994344;28;20034;-84
2021/11/25 13:27:21;;;;;;;19.75;13.75;;;;;;;3.06;nan;99936.50;5006815;28;20419;-83
2021/11/25 13:29:51;;;;;;;25.00;14.77;;;;;;;3.23;nan;99939.59;5007076;28;20098;-85
2021/11/25 13:32:19;;;;;;;25.65;14.57;;;;;;;3.21;nan;99941.50;4995463;28;20046;-85
2021/11/25 13:34:48;;;;;;;26.77;15.55;;;;;;;3.02;nan;99936.88;4986995;28;20053;-83
2021/11/25 13:37:20;;;;;;;25.27;15.30;;;;;;;3.01;nan;99932.59;5016531;28;20057;-83
2021/11/25 13:39:54;;;;;;;24.77;13.93;;;;;;;3.02;nan;99931.63;5015689;28;20217;-83
2021/11/25 13:42:20;;;;;;;28.08;15.10;;;;;;;3.06;nan;99928.69;4989121;28;20057;-83
2021/11/25 13:44:49;;;;;;;26.05;14.90;;;;;;;3.08;nan;99929.41;4989222;28;20503;-84
2021/11/25 13:47:22;;;;;;;24.33;14.93;;;;;;;3.01;nan;99924.78;4984587;28;20058;-83
2021/11/25 13:49:59;;;;;;;30.08;15.68;;;;;;;3.03;nan;99930.69;5017720;28;20042;-84
2021/11/25 13:52:39;;;;;;;26.83;15.38;;;;;;;2.81;nan;99939.31;5001224;28;20046;-83
2021/11/25 13:55:18;;;;;;;25.10;13.60;;;;;;;2.88;nan;99935.31;5002293;28;20038;-83
2021/11/25 13:57:44;;;;;;;28.30;14.90;;;;;;;2.82;nan;99935.78;5011902;28;20030;-83
2021/11/25 14:00:14;;;;;;;24.15;15.73;;;;;;;2.78;nan;99929.94;5000544;28;20437;-83
2021/11/25 14:02:41;;;;;;;24.48;14.60;;;;;;;2.88;nan;99935.31;4999352;28;20034;-83
2021/11/25 14:05:09;;;;;;;25.83;15.27;;;;;;;2.85;nan;99938.97;5003292;28;20101;-83
2021/11/25 14:07:35;;;;;;;22.15;12.93;;;;;;;2.95;nan;99932.09;5020572;28;20034;-84
2021/11/25 14:10:05;;;;;;;26.27;14.60;;;;;;;3.01;nan;99930.00;5004849;28;20042;-84
2021/11/25 14:12:30;;;;;;;30.63;16.15;;;;;;;2.91;nan;99932.47;4990844;28;20038;-83
2021/11/25 14:14:56;;;;;;;25.90;14.70;;;;;;;2.97;nan;99934.59;5009638;28;20049;-83
2021/11/25 14:17:23;;;;;;;23.90;13.05;;;;;;;3.03;nan;99928.06;4992734;28;20105;-83
2021/11/25 14:19:53;;;;;;;20.77;11.70;;;;;;;3.03;nan;99926.31;4996103;28;20034;-83
2021/11/25 14:22:24;;;;;;;20.35;11.75;;;;;;;3.05;nan;99929.63;4997476;28;20037;-83
2021/11/25 14:24:53;;;;;;;19.25;10.55;;;;;;;3.05;nan;99927.03;5010230;28;20030;-84
2021/11/25 14:30:21;;;;;;;;;;;;;;;3.03;nan;99928.06;5006170;28;20053;-84
2021/11/25 14:32:47;;;;;;;;;;;;;;;2.91;nan;99932.47;5011633;28;19918;-84
2021/11/25 14:35:34;;;;;;;23.27;13.65;;;;;;;2.77;nan;99941.34;4996044;28;19914;-85
2021/11/25 14:38:01;;;;;;;;;;;;;;;2.66;nan;99939.53;5004787;28;20026;-83
2021/11/25 14:40:29;;;;;;;26.88;15.10;;;;;;;2.62;nan;99940.75;5003979;28;20321;-84
2021/11/25 14:43:02;;;;;;;28.88;15.68;;;;;;;2.66;nan;99951.78;4997184;28;20041;-83
2021/11/25 14:45:30;;;;;;;28.23;15.85;;;;;;;2.54;nan;99943.06;5020529;28;20088;-84
2021/11/25 14:47:55;;;;;;;32.13;16.90;;;;;;;2.57;nan;99949.84;5027896;28;20089;-84
2021/11/25 14:50:37;;;;;;;27.08;15.35;;;;;;;2.60;nan;99945.25;5012423;28;20030;-83
2021/11/25 14:53:17;;;;;;;26.40;15.25;;;;;;;2.57;nan;99948.06;5011783;28;20088;-84
2021/11/25 14:56:13;;;;;;;31.80;17.17;;;;;;;2.60;nan;99960.91;5010706;28;20117;-84
2021/11/25 14:59:00;;;;;;;26.83;14.95;;;;;;;2.66;nan;99949.97;5010542;28;20041;-84
2021/11/25 15:01:29;;;;;;;28.73;14.93;;;;;;;2.64;nan;99935.38;4997035;28;20026;-83
2021/11/25 15:04:04;;;;;;;23.17;13.07;;;;;;;2.63;nan;99939.78;5027317;28;20030;-83
2021/11/25 15:06:37;;;;;;;32.25;17.50;;;;;;;2.63;nan;99950.22;4986976;28;20034;-83
2021/11/25 15:09:24;;;;;;;28.02;15.60;;;;;;;2.61;nan;99946.06;5003315;28;20034;-83
2021/11/25 15:11:57;;;;;;;26.05;14.35;;;;;;;2.67;nan;99942.97;5003509;28;20061;-83
2021/11/25 15:14:31;;;;;;;27.35;16.05;;;;;;;2.64;nan;99943.22;5010857;28;20089;-84
2021/11/25 15:16:57;;;;;;;27.35;14.90;;;;;;;2.66;nan;99939.53;4988331;28;20038;-83
2021/11/25 15:19:22;;;;;;;24.38;13.88;;;;;;;2.68;nan;99952.50;5010225;28;20049;-84
2021/11/25 15:21:48;;;;;;;26.40;13.63;;;;;;;2.68;nan;99952.50;5011482;28;20034;-84
2021/11/25 15:24:17;;;;;;;26.92;14.68;;;;;;;2.68;nan;99948.09;5002430;28;20050;-83
2021/11/25 15:26:44;;;;;;;27.33;14.75;;;;;;;2.73;nan;99959.00;5005408;28;20034;-83
2021/11/25 15:29:10;;;;;;;26.67;13.60;;;;;;;2.75;nan;99953.69;4996358;28;20030;-83
2021/11/25 15:31:38;;;;;;;25.58;14.80;;;;;;;2.70;nan;99946.19;5013838;28;20040;-83
2021/11/25 15:34:04;;;;;;;27.10;15.63;;;;;;;2.67;nan;99943.84;5007800;28;20394;-84
2021/11/25 15:36:30;;;;;;;27.77;15.32;;;;;;;2.67;nan;99951.66;5029606;28;20034;-84
2021/11/25 15:38:56;;;;;;;27.23;14.07;;;;;;;2.71;nan;99957.47;4997703;28;20049;-83
2021/11/25 15:41:22;;;;;;;28.80;15.60;;;;;;;2.66;nan;99954.38;5011253;28;20030;-84
2021/11/25 15:43:48;;;;;;;25.67;14.18;;;;;;;2.71;nan;99954.84;5011585;28;20057;-83
2021/11/25 15:46:15;;;;;;;24.70;14.10;;;;;;;2.68;nan;99965.53;4988410;28;20035;-83
2021/11/25 15:48:41;;;;;;;22.17;12.75;;;;;;;2.74;nan;99976.38;5012052;28;20034;-83
2021/11/25 15:51:06;;;;;;;27.90;15.70;;;;;;;2.69;nan;99970.66;5009402;28;20446;-83
2021/11/25 15:53:31;;;;;;;25.85;14.00;;;;;;;2.67;nan;99969.09;4996389;28;20034;-83
2021/11/25 15:55:57;;;;;;;25.77;14.25;;;;;;;2.67;nan;99983.00;5020168;28;20149;-84
2021/11/25 15:58:25;;;;;;;22.95;13.27;;;;;;;2.71;nan;99987.00;4987900;28;20027;-83
2021/11/25 16:00:52;;;;;;;24.65;13.23;;;;;;;2.71;nan;99983.56;5016854;28;20030;-83
2021/11/25 16:03:18;;;;;;;32.08;18.00;;;;;;;2.67;nan;99987.34;5000568;28;20042;-83
2021/11/25 16:05:44;;;;;;;34.03;17.85;;;;;;;2.67;nan;99990.81;5025081;28;20068;-83
2021/11/25 16:08:10;;;;;;;33.45;17.10;;;;;;;2.68;nan;99992.47;5008410;28;20133;-83
2021/11/25 16:10:36;;;;;;;27.80;14.98;;;;;;;2.69;nan;99988.94;5010044;28;20038;-83
2021/11/25 16:13:07;;;;;;;28.10;15.20;;;;;;;2.80;nan;99979.44;4985338;28;20050;-83
2021/11/25 16:15:34;;;;;;;24.77;13.88;;;;;;;2.81;nan;99984.53;4993633;28;20034;-83
2021/11/25 16:17:59;;;;;;;25.52;14.68;;;;;;;2.75;nan;99990.25;5005203;28;20030;-83
2021/11/25 16:20:24;;;;;;;28.50;16.08;;;;;;;2.71;nan;99992.22;5003834;28;20080;-82
2021/11/25 16:22:50;;;;;;;26.75;15.70;;;;;;;2.69;nan;99994.16;4993651;28;20054;-83
2021/11/25 16:25:15;;;;;;;25.40;14.27;;;;;;;2.66;nan;99996.97;4986461;28;20034;-83
2021/11/25 16:27:41;;;;;;;25.10;13.77;;;;;;;2.66;nan;99996.97;4989304;28;20040;-84
2021/11/25 16:30:09;;;;;;;24.63;13.63;;;;;;;2.70;nan;99997.59;5003298;28;20112;-83
2021/11/25 16:32:34;;;;;;;26.95;14.43;;;;;;;2.71;nan;99996.63;5002170;28;20042;-83
2021/11/25 16:35:00;;;;;;;30.92;17.65;;;;;;;2.67;nan;99998.66;5001866;28;20053;-83
2021/11/25 16:37:26;;;;;;;28.00;16.77;;;;;;;2.64;nan;99992.81;5007045;28;20030;-83
2021/11/25 16:39:52;;;;;;;29.65;16.17;;;;;;;2.65;nan;100000.53;5001075;28;20045;-84
2021/11/25 16:42:19;;;;;;;25.35;15.18;;;;;;;2.64;nan;99993.63;5008931;28;20034;-83
2021/11/25 16:44:45;;;;;;;24.25;13.73;;;;;;;2.70;nan;100000.19;4983614;28;20031;-83
2021/11/25 16:49:49;;;;;;;25.55;13.57;;;;;;;2.74;nan;99997.25;5005218;28;20054;-83
2021/11/25 16:52:15;;;;;;;29.60;14.48;;;;;;;2.80;nan;99998.56;5004793;28;20501;-84
2021/11/25 16:54:41;;;;;;;30.67;15.95;;;;;;;2.78;nan;99995.22;4983196;28;20435;-83
2021/11/25 16:57:07;;;;;;;27.10;14.55;;;;;;;2.73;nan;99994.75;4986311;28;20097;-83
2021/11/25 16:59:34;;;;;;;24.55;13.05;;;;;;;2.70;nan;99981.94;4991347;28;20109;-83
2021/11/25 17:02:01;;;;;;;27.83;15.35;;;;;;;2.72;nan;99985.25;4990636;28;20025;-83
2021/11/25 17:04:26;;;;;;;27.92;13.98;;;;;;;2.75;nan;99995.47;4974799;28;20084;-84
2021/11/25 17:06:53;;;;;;;28.95;15.52;;;;;;;2.73;nan;99992.97;4990548;28;20045;-83
2021/11/25 17:09:18;;;;;;;28.17;14.93;;;;;;;2.75;nan;99992.84;4985913;28;20636;-84
2021/11/25 17:11:44;;;;;;;31.70;16.65;;;;;;;2.73;nan;99992.97;5000147;28;20050;-83
2021/11/25 17:14:09;;;;;;;32.45;16.27;;;;;;;2.74;nan;99989.41;5001151;28;20037;-84
2021/11/25 17:16:35;;;;;;;30.92;16.95;;;;;;;2.72;nan;99991.31;4990133;28;20031;-84
2021/11/25 17:19:00;;;;;;;30.98;17.13;;;;;;;2.71;nan;99987.00;5014893;28;20046;-83
2021/11/25 17:21:26;;;;;;;28.55;15.90;;;;;;;2.64;nan;99996.25;4993514;28;20160;-84
2021/11/25 17:23:52;;;;;;;31.73;15.50;;;;;;;2.63;nan;99994.59;4982417;28;20057;-84
2021/11/25 17:26:18;;;;;;;28.23;15.02;;;;;;;2.64;nan;99991.03;4989395;28;20065;-84
2021/11/25 17:28:48;;;;;;;31.33;16.45;;;;;;;2.66;nan;99986.53;5003867;28;20098;-84
2021/11/25 17:31:19;;;;;;;35.03;17.52;;;;;;;2.71;nan;99986.19;5007129;28;20040;-83
2021/11/25 17:33:45;;;;;;;36.38;17.63;;;;;;;2.60;nan;99981.78;5006391;28;20483;-84
2021/11/25 17:36:12;;;;;;;36.13;18.23;;;;;;;2.60;nan;99984.41;4999902;28;20092;-84
2021/11/25 17:38:38;;;;;;;34.28;17.02;;;;;;;2.53;nan;99985.78;5015507;28;20030;-84
2021/11/25 17:41:04;;;;;;;31.95;16.95;;;;;;;2.52;nan;100000.59;4999785;28;20634;-84
2021/11/25 17:43:31;;;;;;;29.75;15.30;;;;;;;2.47;nan;99997.50;5008470;28;20196;-84
2021/11/25 17:45:57;;;;;;;33.05;16.98;;;;;;;2.51;nan;99992.91;4987188;28;20030;-84
2021/11/25 17:48:24;;;;;;;33.20;17.50;;;;;;;2.52;nan;99994.56;5002051;28;20386;-84
2021/11/25 17:50:50;;;;;;;34.22;17.90;;;;;;;2.51;nan;99992.91;4996187;28;20043;-84
2021/11/25 17:53:15;;;;;;;34.03;18.23;;;;;;;2.47;nan;99992.28;5002997;28;20053;-85
2021/11/25 17:55:41;;;;;;;35.40;18.35;;;;;;;2.41;nan;99991.88;4991364;28;20133;-83
2021/11/25 17:58:08;;;;;;;36.78;18.08;;;;;;;2.36;nan;99994.88;4999318;28;20431;-84
2021/11/25 18:00:35;;;;;;;35.35;17.55;;;;;;;2.33;nan;100001.13;4991815;28;20030;-83
2021/11/25 18:03:00;;;;;;;35.25;17.85;;;;;;;2.33;nan;100005.50;4992292;28;20030;-83
2021/11/25 18:05:25;;;;;;;29.73;16.83;;;;;;;2.24;nan;100001.81;5002926;28;20084;-82
2021/11/25 18:07:51;;;;;;;34.55;16.85;;;;;;;2.33;nan;100010.72;5027270;28;20034;-83
2021/11/25 18:10:17;;;;;;;34.53;17.77;;;;;;;2.29;nan;99999.69;4993125;28;20041;-84
2021/11/25 18:12:44;;;;;;;32.80;16.42;;;;;;;2.16;nan;100006.72;5007374;28;20087;-83
2021/11/25 18:15:11;;;;;;;32.80;17.10;;;;;;;2.01;nan;100016.50;5004238;28;20030;-84
2021/11/25 18:17:37;;;;;;;32.17;17.15;;;;;;;1.91;nan;100016.31;5008903;28;20045;-83
2021/11/25 18:20:05;;;;;;;34.33;17.60;;;;;;;1.91;nan;100016.31;5012694;28;20038;-83
2021/11/25 18:22:30;;;;;;;34.60;17.45;;;;;;;2.01;nan;100005.25;5013893;28;20461;-83
2021/11/25 18:24:56;;;;;;;30.40;15.73;;;;;;;2.02;nan;100007.72;4988896;28;20034;-83
2021/11/25 18:27:22;;;;;;;28.77;15.38;;;;;;;1.93;nan;100016.19;5008765;28;20040;-83